Abbeville, Alabama
Current Conditions -  °F | °C
As of 5:53 PM on Sunday 25 Jan 2015 (Local Time) from KDHN Reporting Station
Clear Clear  
Wind Chill: 14°   Ceiling: Unl
Heat Index: 14°   Visibility: 10mi
Dew Point:   Wind: 15mph
Humidity: 55%   Direction: 210°SSW
Pressure: 29.86"   Gusts: 29mph
Location:  31.57°N, 85.25°W
Report Text: KDHN 252353Z 21013G25KT 10SM CLR 14/05 A2986 RMK AO2 SLP110 T01390050 10178 20139 55007
Loading
Personal Weather Stations






























Interactive Weather Map New forecast layout! Learn more

10-Day Weather Forecast

Advertisements
Track Severe Weather on mobile